createdAt,value
2019-02-23T00:08:27.858Z,12.47
2019-02-23T00:18:33.372Z,12.23
2019-02-23T00:28:39.545Z,10.10
2019-02-23T00:38:45.484Z,10.90
2019-02-23T00:48:50.848Z,12.27
2019-02-23T00:58:56.455Z,10.80
2019-02-23T01:09:01.822Z,11.97
2019-02-23T01:19:08.846Z,12.27
2019-02-23T01:29:14.259Z,13.27
2019-02-23T01:39:19.733Z,10.47
2019-02-23T01:49:25.207Z,12.13
2019-02-23T01:59:30.715Z,8.50
2019-02-23T02:09:36.522Z,10.03
2019-02-23T02:19:41.949Z,11.10
2019-02-23T02:29:47.339Z,10.23
2019-02-23T02:39:52.925Z,8.37
2019-02-23T02:49:58.354Z,7.60
2019-02-23T03:00:03.779Z,11.10
2019-02-23T03:10:09.329Z,12.73
2019-02-23T03:20:15.231Z,10.93
2019-02-23T03:30:20.594Z,7.80
2019-02-23T03:40:25.958Z,8.87
2019-02-23T03:50:31.395Z,8.80
2019-02-23T04:00:36.750Z,10.23
2019-02-23T04:10:42.319Z,12.63
2019-02-23T04:21:00.963Z,7.93
2019-02-23T04:30:55.584Z,6.67
2019-02-23T04:41:01.103Z,10.47
2019-02-23T04:51:14.533Z,10.83
2019-02-23T05:01:13.842Z,7.80
2019-02-23T05:11:19.104Z,8.97
2019-02-23T05:21:26.799Z,8.33
2019-02-23T05:31:31.262Z,10.97
2019-02-23T05:41:36.994Z,7.80
2019-02-23T05:51:42.384Z,9.17
2019-02-23T06:01:47.766Z,8.90
2019-02-23T06:11:52.990Z,9.90
2019-02-23T06:21:58.380Z,11.93
2019-02-23T06:32:03.690Z,10.70
2019-02-23T06:42:09.040Z,12.50
2019-02-23T06:52:14.733Z,12.90
2019-02-23T07:02:20.038Z,11.87
2019-02-23T07:12:25.702Z,10.73
2019-02-23T07:22:33.519Z,13.53
2019-02-23T07:32:38.176Z,14.00
2019-02-23T07:42:43.588Z,9.67
2019-02-23T07:52:48.982Z,11.30
2019-02-23T08:02:54.251Z,12.17
2019-02-23T08:12:59.980Z,13.97
2019-02-23T08:23:05.608Z,9.77
2019-02-23T08:33:11.752Z,12.83
2019-02-23T08:43:17.399Z,8.07
2019-02-23T08:53:22.839Z,21.40
2019-02-23T09:03:28.229Z,13.33
2019-02-23T09:13:33.713Z,9.50
2019-02-23T09:23:39.359Z,10.87
2019-02-23T09:33:44.717Z,11.97
2019-02-23T09:43:50.196Z,8.83
2019-02-23T09:53:55.501Z,11.53
2019-02-23T10:04:00.933Z,7.87
2019-02-23T10:14:07.483Z,9.17
2019-02-23T10:24:12.875Z,8.43
2019-02-23T10:34:18.179Z,14.37
2019-02-23T10:44:23.537Z,10.70
2019-02-23T10:54:29.070Z,9.20
2019-02-23T11:04:34.675Z,8.00
2019-02-23T11:14:40.095Z,12.93
2019-02-23T11:24:45.601Z,14.03
2019-02-23T11:34:51.079Z,11.10
2019-02-23T11:44:56.612Z,19.13
2019-02-23T11:55:01.986Z,10.47
2019-02-23T12:05:07.881Z,17.03
2019-02-23T12:15:13.345Z,15.17
2019-02-23T12:25:18.779Z,16.07
2019-02-23T12:35:25.746Z,14.73
2019-02-23T12:45:31.064Z,12.77
2019-02-23T12:55:36.608Z,12.97
2019-02-23T13:05:42.170Z,13.47
2019-02-23T13:16:20.562Z,13.37
2019-02-23T13:27:16.280Z,10.13
2019-02-23T13:38:04.168Z,13.03
2019-02-23T13:48:50.586Z,10.43
2019-02-23T13:59:34.363Z,11.63
2019-02-23T14:10:27.180Z,9.67
2019-02-23T14:21:14.986Z,9.77
2019-02-23T14:32:04.278Z,12.27
2019-02-23T14:42:41.114Z,11.00
2019-02-23T14:53:36.140Z,13.00
2019-02-23T15:04:16.754Z,12.07
2019-02-23T15:15:06.356Z,12.60
2019-02-23T15:25:55.466Z,15.03
2019-02-23T15:36:28.305Z,12.87
2019-02-23T15:47:06.328Z,13.73
2019-02-23T15:57:11.642Z,20.93
2019-02-23T16:07:17.460Z,14.13
2019-02-23T16:17:22.774Z,18.37
2019-02-23T16:27:27.997Z,37.70
2019-02-23T16:37:33.218Z,16.50
2019-02-23T16:47:39.061Z,16.80
2019-02-23T16:57:44.626Z,14.97
2019-02-23T17:07:50.087Z,13.13
2019-02-23T17:17:55.480Z,15.50
2019-02-23T17:28:00.858Z,20.37
2019-02-23T17:38:15.682Z,17.53
2019-02-23T17:48:13.547Z,19.47
2019-02-23T17:58:18.883Z,19.50
2019-02-23T18:08:24.505Z,21.40
2019-02-23T18:18:29.844Z,19.63
2019-02-23T18:28:35.335Z,17.03
2019-02-23T18:38:41.889Z,21.20
2019-02-23T18:48:47.543Z,17.37
2019-02-23T18:58:52.821Z,19.90
2019-02-23T19:08:58.215Z,17.50
2019-02-23T19:19:04.511Z,21.03
2019-02-23T19:29:10.079Z,18.03
2019-02-23T19:39:16.241Z,26.00
2019-02-23T19:49:22.226Z,20.07
2019-02-23T19:59:27.582Z,19.13
2019-02-23T20:09:33.154Z,19.20
2019-02-23T20:19:38.691Z,25.67
2019-02-23T20:29:44.194Z,29.17
2019-02-23T20:39:49.548Z,21.10
2019-02-23T20:49:55.223Z,23.33
2019-02-23T21:00:00.436Z,21.10
2019-02-23T21:10:08.126Z,19.57
2019-02-23T21:20:13.583Z,20.17
2019-02-23T21:30:18.880Z,18.10
2019-02-23T21:40:24.277Z,21.63
2019-02-23T21:50:29.774Z,25.73
2019-02-23T22:00:35.100Z,25.73
2019-02-23T22:10:40.494Z,19.27
2019-02-23T22:20:45.848Z,26.63
2019-02-23T22:30:51.254Z,23.60
2019-02-23T22:40:56.737Z,30.57
2019-02-23T22:51:02.250Z,22.47
2019-02-23T23:01:08.317Z,23.67
2019-02-23T23:11:14.955Z,21.03
2019-02-23T23:21:20.357Z,22.80
2019-02-23T23:31:25.926Z,22.70
2019-02-23T23:41:31.099Z,27.30
2019-02-23T23:51:36.519Z,26.17
